Костомарово

Карта отелей и гостиниц, располагающихся рядом с аэропортом Костомарово :

Костомарово Тульская область 54° 13' 41.16" N, 37° 20' 26.4012" E
Код аэродрома ИКАО
H459
Код аэродрома RU
Х459
Координаты
N54.22810° E037.34067°
Превышение над уровнем моря
211
Основная полоса
12/30
Курс магнитный
142,9/322,9
Длина основной ВПП
50
Ширина основной ВПП
50
Покрытие основной ВПП
Нетвёрдое (грунт)
Освещение ВПП
Нет
Тип: 
Вертодром
Класс аэродрома: 
Принадлежность: 
МО
Статус: 
Недействующий
Сайт: 
E-mail аэродрома: 
Страна: 
Россия
Регион: 
Тульская область
Город: 
Дополнительная информация: 
Оператор: войска ПВО. Имел радиопозывной "Бахчевод-Початок".

Найти трансфер

С помощью этой формы Вы можете найти трансфер из аэропорта Костомарово в город, аэропорт или вокзал:

Карта места

Javascript is required to view this map.

Погода в аэропортах:

Авиационная погода в Кадале

Регион: 
Погода METAR: 
UIAA 051100Z 23003MPS 2800 FU FEW033CB 20/14 Q1002 R29/CLRD70 NOSIG RMK QFE693/0925
Время наблюдения
2021-08-05T11:00:00Z
Температура C
20.0
Точка росы
14.0
Направление ветра
230
Скорость ветра (узлы)
6
Метео видимость
1.74
Явления погоды
FU
Условия полета
IFR
Аэропорт подробнее: 

Авиационная погода в Нижневартовске

Регион: 
Погода METAR: 
USNN 051100Z 36002MPS 320V030 3600 FU BKN026 20/16 Q1010 R03/0///65 NOSIG RMK QFE753
Время наблюдения
2021-08-05T11:00:00Z
Температура C
20.0
Точка росы
16.0
Направление ветра
360
Скорость ветра (узлы)
4
Метео видимость
2.24
Явления погоды
FU
Условия полета
IFR
Аэропорт подробнее: 

Авиационная погода в Сургуте

Регион: 
Погода METAR: 
USRR 050900Z 36002MPS 320V040 2100 R07/1900N BR BKN022 19/18 Q1012 R07/CLRD60 TEMPO 1000 BR RMK OBST OBSC QFE754
Время наблюдения
2021-08-05T09:00:00Z
Температура C
19.0
Точка росы
18.0
Направление ветра
360
Скорость ветра (узлы)
4
Метео видимость
1.3
Явления погоды
BR
Условия полета
IFR
Аэропорт подробнее: 

Авиационная погода в Вадсё

Регион: 
Погода METAR: 
ENVD 051050Z 25006KT 9999 VCSH BKN050 14/09 Q1010
Время наблюдения
2021-08-05T10:50:00Z
Температура C
14.0
Точка росы
9.0
Направление ветра
250
Скорость ветра (узлы)
6
Метео видимость
6.21
Явления погоды
VCSH
Условия полета
VFR